createdAt,value
2023-05-06T00:02:20.744Z,8.60
2023-05-06T00:04:47.754Z,8.90
2023-05-06T00:07:14.636Z,9.73
2023-05-06T00:09:41.316Z,10.85
2023-05-06T00:12:08.076Z,10.00
2023-05-06T00:14:34.881Z,8.80
2023-05-06T00:17:01.719Z,11.38
2023-05-06T00:19:28.458Z,8.52
2023-05-06T00:21:55.878Z,11.07
2023-05-06T00:24:22.722Z,10.73
2023-05-06T00:26:49.476Z,12.32
2023-05-06T00:29:16.851Z,14.05
2023-05-06T00:31:43.636Z,11.57
2023-05-06T00:34:10.524Z,12.75
2023-05-06T00:36:37.908Z,12.50
2023-05-06T00:39:05.987Z,9.23
2023-05-06T00:41:33.392Z,13.02
2023-05-06T00:44:00.213Z,12.30
2023-05-06T00:46:27.503Z,11.18
2023-05-06T00:48:55.078Z,12.10
2023-05-06T00:51:22.747Z,12.25
2023-05-06T00:53:50.246Z,13.82
2023-05-06T00:56:20.866Z,11.95
2023-05-06T00:58:48.249Z,13.48
2023-05-06T01:01:15.079Z,13.70
2023-05-06T01:03:41.977Z,13.77
2023-05-06T01:06:14.502Z,9.13
2023-05-06T01:08:57.486Z,11.65
2023-05-06T01:11:38.862Z,10.25
2023-05-06T01:14:20.741Z,13.27
2023-05-06T01:16:52.687Z,10.25
2023-05-06T01:19:36.620Z,14.88
2023-05-06T01:22:06.075Z,10.82
2023-05-06T01:24:40.304Z,13.90
2023-05-06T01:27:08.446Z,15.70
2023-05-06T01:29:36.955Z,12.98
2023-05-06T01:32:23.491Z,12.68
2023-05-06T01:35:13.831Z,11.52
2023-05-06T01:38:01.374Z,13.13
2023-05-06T01:40:30.148Z,12.43
2023-05-06T01:42:57.290Z,14.07
2023-05-06T01:45:30.384Z,12.95
2023-05-06T01:47:58.630Z,14.77
2023-05-06T01:50:26.218Z,16.77
2023-05-06T01:53:00.924Z,15.47
2023-05-06T01:55:28.731Z,16.88
2023-05-06T01:57:56.707Z,15.80
2023-05-06T02:00:25.340Z,15.98
2023-05-06T02:02:52.560Z,15.27
2023-05-06T02:05:19.387Z,15.20
2023-05-06T02:07:49.967Z,16.25
2023-05-06T02:10:17.058Z,15.38
2023-05-06T02:12:48.988Z,15.13
2023-05-06T02:15:15.790Z,14.00
2023-05-06T02:17:43.789Z,13.90
2023-05-06T02:20:10.801Z,14.55
2023-05-06T02:22:37.485Z,19.83
2023-05-06T02:25:04.553Z,16.55
2023-05-06T02:27:31.269Z,17.02
2023-05-06T02:29:57.995Z,16.40
2023-05-06T02:32:24.748Z,15.18
2023-05-06T02:34:53.318Z,17.80
2023-05-06T02:37:22.244Z,13.88
2023-05-06T02:39:49.149Z,14.57
2023-05-06T02:42:16.159Z,18.17
2023-05-06T02:44:42.994Z,15.85
2023-05-06T02:47:09.786Z,14.10
2023-05-06T02:49:36.525Z,15.38
2023-05-06T02:52:03.327Z,14.70
2023-05-06T02:54:30.130Z,14.00
2023-05-06T02:56:56.937Z,11.95
2023-05-06T02:59:23.799Z,13.65
2023-05-06T03:01:50.526Z,14.23
2023-05-06T03:04:17.271Z,10.25
2023-05-06T03:06:44.057Z,14.60
2023-05-06T03:09:10.941Z,9.80
2023-05-06T03:11:37.736Z,9.57
2023-05-06T03:14:05.818Z,11.10
2023-05-06T03:16:32.765Z,10.48
2023-05-06T03:19:00.448Z,9.53
2023-05-06T03:21:27.277Z,11.10
2023-05-06T03:23:54.019Z,10.80
2023-05-06T03:26:23.433Z,10.68
2023-05-06T03:28:50.251Z,10.02
2023-05-06T03:31:19.775Z,12.70
2023-05-06T03:33:46.818Z,10.45
2023-05-06T03:36:16.684Z,13.43
2023-05-06T03:38:46.154Z,10.43
2023-05-06T03:41:13.079Z,12.68
2023-05-06T03:43:40.484Z,12.10
2023-05-06T03:46:07.797Z,10.07
2023-05-06T03:48:36.094Z,10.07
2023-05-06T03:51:05.687Z,11.20
2023-05-06T03:53:32.624Z,10.70
2023-05-06T03:55:59.435Z,10.80
2023-05-06T03:58:26.359Z,11.77
2023-05-06T04:00:53.158Z,14.35
2023-05-06T04:03:20.060Z,16.27
2023-05-06T04:05:50.858Z,14.38
2023-05-06T04:08:21.094Z,14.97
2023-05-06T04:10:47.951Z,13.48
2023-05-06T04:13:26.439Z,12.38
2023-05-06T04:15:54.196Z,14.52
2023-05-06T04:18:26.045Z,17.45
2023-05-06T04:21:00.143Z,19.57
2023-05-06T04:23:28.143Z,14.80
2023-05-06T04:25:57.790Z,15.93
2023-05-06T04:28:25.125Z,14.18
2023-05-06T04:30:53.129Z,12.38
2023-05-06T04:33:25.046Z,12.10
2023-05-06T04:35:53.822Z,12.70
2023-05-06T04:38:21.778Z,12.73
2023-05-06T04:40:50.076Z,12.15
2023-05-06T04:43:17.280Z,12.82
2023-05-06T04:45:52.908Z,14.33
2023-05-06T04:48:24.169Z,12.80
2023-05-06T04:50:53.740Z,11.23
2023-05-06T04:53:20.575Z,13.35
2023-05-06T04:55:47.380Z,12.50
2023-05-06T04:58:15.339Z,12.53
2023-05-06T05:00:42.121Z,12.25
2023-05-06T05:03:09.410Z,13.02
2023-05-06T05:05:36.455Z,16.67
2023-05-06T05:08:05.736Z,13.50
2023-05-06T05:10:35.891Z,12.47
2023-05-06T05:13:02.690Z,13.15
2023-05-06T05:15:29.734Z,13.30
2023-05-06T05:17:56.583Z,18.05
2023-05-06T05:20:23.822Z,16.65
2023-05-06T05:22:50.848Z,18.10
2023-05-06T05:25:17.810Z,20.40
2023-05-06T05:27:46.285Z,19.85
2023-05-06T05:30:13.328Z,20.00
2023-05-06T05:32:41.566Z,20.55
2023-05-06T05:35:10.700Z,20.37
2023-05-06T05:37:39.601Z,22.13
2023-05-06T05:40:07.509Z,22.48
2023-05-06T05:42:36.843Z,19.52
2023-05-06T05:45:09.760Z,22.48
2023-05-06T05:47:37.046Z,20.10
2023-05-06T05:50:04.686Z,20.73
2023-05-06T05:52:31.497Z,17.67
2023-05-06T05:54:58.593Z,25.58
2023-05-06T05:57:26.138Z,19.13
2023-05-06T05:59:52.847Z,21.03
2023-05-06T06:02:19.694Z,20.13
2023-05-06T06:04:46.890Z,21.55
2023-05-06T06:07:13.783Z,19.95
2023-05-06T06:09:42.851Z,20.40
2023-05-06T06:12:09.764Z,21.80
2023-05-06T06:14:40.134Z,21.80
2023-05-06T06:17:07.456Z,18.40
2023-05-06T06:19:34.643Z,20.40
2023-05-06T06:22:02.146Z,23.23
2023-05-06T06:24:34.617Z,19.20
2023-05-06T06:27:01.662Z,18.30
2023-05-06T06:29:28.654Z,19.65
2023-05-06T06:31:58.284Z,20.65
2023-05-06T06:34:25.579Z,18.33
2023-05-06T06:36:52.295Z,20.27
2023-05-06T06:39:19.038Z,15.25
2023-05-06T06:41:45.849Z,19.08
2023-05-06T06:44:12.839Z,18.63
2023-05-06T06:46:39.556Z,16.77
2023-05-06T06:49:06.398Z,19.80
2023-05-06T06:51:33.125Z,21.27
2023-05-06T06:53:59.844Z,19.10
2023-05-06T06:56:26.579Z,22.50
2023-05-06T06:58:53.599Z,19.40
2023-05-06T07:01:20.781Z,20.47
2023-05-06T07:03:47.644Z,20.20
2023-05-06T07:06:14.471Z,17.92
2023-05-06T07:08:41.270Z,18.50
2023-05-06T07:11:07.986Z,20.80
2023-05-06T07:13:35.185Z,21.23
2023-05-06T07:16:01.874Z,24.45
2023-05-06T07:18:28.631Z,22.95
2023-05-06T07:20:55.400Z,17.88
2023-05-06T07:23:22.181Z,20.02
2023-05-06T07:25:48.999Z,19.70
2023-05-06T07:28:15.913Z,17.55
2023-05-06T07:30:42.988Z,20.67
2023-05-06T07:33:09.678Z,22.13
2023-05-06T07:35:37.010Z,20.88
2023-05-06T07:38:04.029Z,18.80
2023-05-06T07:40:30.745Z,23.40
2023-05-06T07:42:57.603Z,22.35
2023-05-06T07:45:25.140Z,25.02
2023-05-06T07:47:52.182Z,20.77
2023-05-06T07:50:19.044Z,24.53
2023-05-06T07:52:45.833Z,21.55
2023-05-06T07:55:12.809Z,20.33
2023-05-06T07:57:39.718Z,20.02
2023-05-06T08:00:07.096Z,20.65
2023-05-06T08:02:43.887Z,24.93
2023-05-06T08:05:11.333Z,22.88
2023-05-06T08:07:43.018Z,23.48
2023-05-06T08:10:10.448Z,23.00
2023-05-06T08:12:38.231Z,23.85
2023-05-06T08:15:05.484Z,22.37
2023-05-06T08:17:32.253Z,19.52
2023-05-06T08:19:59.040Z,23.23
2023-05-06T08:22:25.902Z,28.02
2023-05-06T08:24:52.722Z,27.35
2023-05-06T08:27:19.647Z,24.27
2023-05-06T08:29:46.428Z,22.40
2023-05-06T08:32:13.524Z,30.40
2023-05-06T08:34:40.191Z,23.25
2023-05-06T08:37:07.345Z,23.15
2023-05-06T08:39:34.080Z,27.20
2023-05-06T08:42:02.021Z,25.83
2023-05-06T08:44:29.236Z,22.85
2023-05-06T08:46:56.352Z,23.42
2023-05-06T08:49:23.408Z,22.17
2023-05-06T08:51:54.732Z,31.30
2023-05-06T08:54:25.430Z,24.45
2023-05-06T08:56:54.676Z,27.42
2023-05-06T08:59:24.904Z,22.02
2023-05-06T09:01:52.631Z,22.85
2023-05-06T09:04:19.919Z,23.23
2023-05-06T09:06:46.837Z,25.30
2023-05-06T09:09:14.919Z,23.50
2023-05-06T09:11:41.897Z,22.30
2023-05-06T09:14:13.021Z,24.15
2023-05-06T09:16:42.518Z,22.33
2023-05-06T09:19:09.834Z,24.15
2023-05-06T09:21:38.852Z,25.83
2023-05-06T09:24:07.236Z,23.63
2023-05-06T09:26:36.658Z,23.92
2023-05-06T09:29:04.357Z,25.87
2023-05-06T09:31:31.617Z,24.80
2023-05-06T09:34:00.930Z,21.20
2023-05-06T09:36:28.641Z,22.13
2023-05-06T09:38:57.115Z,24.90
2023-05-06T09:41:28.076Z,26.67
2023-05-06T09:43:56.173Z,21.10
2023-05-06T09:46:24.088Z,25.85
2023-05-06T09:48:52.258Z,22.67
2023-05-06T09:51:19.598Z,22.00
2023-05-06T09:53:46.999Z,20.37
2023-05-06T09:56:14.987Z,23.20
2023-05-06T09:58:42.410Z,23.42
2023-05-06T10:01:09.943Z,20.60
2023-05-06T10:03:37.385Z,22.90
2023-05-06T10:06:06.197Z,23.63
2023-05-06T10:08:37.184Z,22.67
2023-05-06T10:11:06.517Z,20.75
2023-05-06T10:13:33.585Z,21.60
2023-05-06T10:16:02.572Z,23.45
2023-05-06T10:18:30.722Z,19.90
2023-05-06T10:21:00.219Z,21.27
2023-05-06T10:23:44.287Z,19.63
2023-05-06T10:26:12.027Z,19.70
2023-05-06T10:28:42.935Z,16.55
2023-05-06T10:31:13.087Z,17.83
2023-05-06T10:33:42.586Z,19.00
2023-05-06T10:36:31.829Z,18.77
2023-05-06T10:39:01.644Z,21.02
2023-05-06T10:41:29.302Z,17.45
2023-05-06T10:43:57.434Z,17.13
2023-05-06T10:46:26.393Z,16.95
2023-05-06T10:49:11.472Z,18.73
2023-05-06T10:51:43.030Z,18.23
2023-05-06T10:54:18.668Z,19.10
2023-05-06T10:56:48.155Z,18.20
2023-05-06T10:59:15.218Z,18.10
2023-05-06T11:01:43.883Z,20.17
2023-05-06T11:04:19.297Z,19.38
2023-05-06T11:06:50.790Z,19.20
2023-05-06T11:09:22.872Z,14.23
2023-05-06T11:11:51.655Z,18.52
2023-05-06T11:14:35.748Z,16.05
2023-05-06T11:17:07.990Z,14.13
2023-05-06T11:19:36.442Z,15.55
2023-05-06T11:22:05.797Z,13.77
2023-05-06T11:24:41.377Z,20.27
2023-05-06T11:27:09.735Z,13.77
2023-05-06T11:29:37.028Z,13.95
2023-05-06T11:32:05.539Z,13.05
2023-05-06T11:34:33.035Z,12.97
2023-05-06T11:37:05.266Z,12.80
2023-05-06T11:39:39.854Z,12.90
2023-05-06T11:42:08.702Z,14.13
2023-05-06T11:44:39.506Z,13.18
2023-05-06T11:47:08.383Z,14.77
2023-05-06T11:49:37.516Z,13.82
2023-05-06T11:52:04.530Z,14.75
2023-05-06T11:54:34.892Z,12.95
2023-05-06T11:57:02.050Z,16.48
2023-05-06T11:59:37.395Z,12.30
2023-05-06T12:02:07.187Z,12.32
2023-05-06T12:04:42.126Z,22.40
2023-05-06T12:07:12.040Z,11.40
2023-05-06T12:09:42.517Z,14.80
2023-05-06T12:12:10.849Z,12.40
2023-05-06T12:14:38.541Z,14.43
2023-05-06T12:17:05.752Z,16.30
2023-05-06T12:19:33.405Z,11.88
2023-05-06T12:22:15.579Z,13.82
2023-05-06T12:24:42.472Z,12.30
2023-05-06T12:27:09.287Z,18.70
2023-05-06T12:29:36.230Z,13.43
2023-05-06T12:32:10.972Z,13.98
2023-05-06T12:34:39.240Z,12.00
2023-05-06T12:37:06.818Z,13.63
2023-05-06T12:39:38.166Z,14.43
2023-05-06T12:42:06.140Z,14.10
2023-05-06T12:44:34.048Z,11.65
2023-05-06T12:47:02.976Z,13.38
2023-05-06T12:49:55.706Z,10.95
2023-05-06T12:52:24.436Z,13.32
2023-05-06T12:54:54.852Z,11.82
2023-05-06T12:57:22.306Z,14.38
2023-05-06T12:59:49.754Z,12.18
2023-05-06T13:02:16.530Z,12.05
2023-05-06T13:04:44.312Z,10.98
2023-05-06T13:07:11.937Z,11.27
2023-05-06T13:09:38.680Z,12.25
2023-05-06T13:12:06.175Z,12.75
2023-05-06T13:14:32.890Z,10.60
2023-05-06T13:17:01.143Z,11.73
2023-05-06T13:19:33.083Z,12.82
2023-05-06T13:22:01.197Z,11.10
2023-05-06T13:24:28.674Z,12.27
2023-05-06T13:26:56.945Z,12.77
2023-05-06T13:29:24.407Z,11.60
2023-05-06T13:31:51.725Z,12.45
2023-05-06T13:34:18.890Z,12.55
2023-05-06T13:36:47.742Z,13.02
2023-05-06T13:39:16.055Z,10.52
2023-05-06T13:41:45.746Z,15.73
2023-05-06T13:44:12.486Z,14.80
2023-05-06T13:46:39.383Z,11.85
2023-05-06T13:49:06.092Z,11.88
2023-05-06T13:51:34.512Z,11.80
2023-05-06T13:54:01.949Z,10.65
2023-05-06T13:56:29.070Z,9.50
2023-05-06T13:58:55.878Z,11.82
2023-05-06T14:01:23.830Z,10.73
2023-05-06T14:03:50.746Z,6.75
2023-05-06T14:06:17.600Z,6.80
2023-05-06T14:08:44.535Z,6.80
2023-05-06T14:11:11.526Z,7.30
2023-05-06T14:13:39.865Z,7.60
2023-05-06T14:16:06.927Z,6.45
2023-05-06T14:18:34.245Z,5.93
2023-05-06T14:21:01.013Z,8.23
2023-05-06T14:23:27.756Z,7.50
2023-05-06T14:25:54.732Z,5.40
2023-05-06T14:28:21.464Z,4.88
2023-05-06T14:30:48.191Z,7.05
2023-05-06T14:33:14.922Z,5.60
2023-05-06T14:35:42.870Z,5.45
2023-05-06T14:38:10.810Z,6.10
2023-05-06T14:40:38.801Z,8.57
2023-05-06T14:43:07.108Z,8.30
2023-05-06T14:45:34.042Z,5.45
2023-05-06T14:48:00.990Z,8.43
2023-05-06T14:50:27.744Z,5.93
2023-05-06T14:52:54.455Z,6.43
2023-05-06T14:55:21.376Z,5.15
2023-05-06T14:57:48.305Z,5.60
2023-05-06T15:00:16.043Z,5.28
2023-05-06T15:02:42.895Z,4.50
2023-05-06T15:05:12.020Z,7.22
2023-05-06T15:07:39.121Z,6.40
2023-05-06T15:10:06.087Z,7.32
2023-05-06T15:12:33.715Z,4.82
2023-05-06T15:15:00.575Z,6.13
2023-05-06T15:17:27.439Z,4.72
2023-05-06T15:19:54.383Z,5.55
2023-05-06T15:22:21.043Z,5.47
2023-05-06T15:24:47.734Z,6.03
2023-05-06T15:27:15.195Z,4.40
2023-05-06T15:29:41.899Z,6.25
2023-05-06T15:32:08.833Z,7.40
2023-05-06T15:34:35.814Z,9.25
2023-05-06T15:37:02.567Z,5.43
2023-05-06T15:39:29.449Z,8.20
2023-05-06T15:41:59.045Z,4.55
2023-05-06T15:44:26.917Z,8.40
2023-05-06T15:46:53.994Z,6.15
2023-05-06T15:51:50.481Z,9.98
2023-05-06T15:54:20.234Z,5.60
2023-05-06T15:56:47.007Z,6.65
2023-05-06T15:59:13.787Z,5.03
2023-05-06T16:02:24.420Z,5.25
2023-05-06T16:04:28.632Z,6.53
2023-05-06T16:06:56.139Z,6.45
2023-05-06T16:09:22.877Z,5.38
2023-05-06T16:11:49.683Z,6.05
2023-05-06T16:14:16.447Z,9.48
2023-05-06T16:16:43.296Z,4.90
2023-05-06T16:19:10.189Z,6.07
2023-05-06T16:21:37.403Z,5.00
2023-05-06T16:24:04.267Z,5.50
2023-05-06T16:26:31.001Z,6.22
2023-05-06T16:28:59.428Z,7.82
2023-05-06T16:31:26.742Z,7.15
2023-05-06T16:33:53.683Z,5.05
2023-05-06T16:36:20.384Z,8.85
2023-05-06T16:38:47.132Z,7.90
2023-05-06T16:41:13.923Z,6.20
2023-05-06T16:43:40.927Z,5.80
2023-05-06T16:46:07.737Z,6.13
2023-05-06T16:48:34.609Z,7.15
2023-05-06T16:51:01.629Z,5.57
2023-05-06T16:53:29.417Z,4.93
2023-05-06T16:55:56.298Z,4.65
2023-05-06T16:58:23.181Z,4.03
2023-05-06T17:00:52.464Z,4.75
2023-05-06T17:03:19.344Z,4.22
2023-05-06T17:05:46.738Z,6.00
2023-05-06T17:08:13.766Z,5.23
2023-05-06T17:10:40.720Z,7.93
2023-05-06T17:13:07.482Z,3.75
2023-05-06T17:15:34.241Z,4.93
2023-05-06T17:18:01.039Z,4.53
2023-05-06T17:20:28.059Z,5.55
2023-05-06T17:22:54.906Z,6.20
2023-05-06T17:25:21.714Z,5.75
2023-05-06T17:27:48.496Z,4.55
2023-05-06T17:30:15.313Z,3.45
2023-05-06T17:32:42.483Z,5.47
2023-05-06T17:35:10.075Z,5.22
2023-05-06T17:37:36.924Z,4.45
2023-05-06T17:40:05.240Z,4.05
2023-05-06T17:42:33.628Z,5.00
2023-05-06T17:45:00.753Z,5.93
2023-05-06T17:47:29.923Z,8.52
2023-05-06T17:49:57.021Z,4.65
2023-05-06T17:52:27.074Z,6.53
2023-05-06T17:55:14.927Z,8.32
2023-05-06T17:57:40.895Z,5.20
2023-05-06T18:00:09.118Z,9.15
2023-05-06T18:02:38.962Z,6.95
2023-05-06T18:05:06.471Z,5.28
2023-05-06T18:07:34.664Z,5.55
2023-05-06T18:10:01.528Z,5.73
2023-05-06T18:12:28.593Z,6.50
2023-05-06T18:14:56.739Z,6.15
2023-05-06T18:17:23.761Z,6.07
2023-05-06T18:19:50.731Z,6.75
2023-05-06T18:22:17.417Z,8.40
2023-05-06T18:24:44.362Z,6.50
2023-05-06T18:27:12.915Z,6.72
2023-05-06T18:29:41.225Z,10.02
2023-05-06T18:32:08.250Z,10.57
2023-05-06T18:34:35.300Z,7.27
2023-05-06T18:37:02.065Z,8.65
2023-05-06T18:39:28.772Z,13.73
2023-05-06T18:41:55.540Z,10.88
2023-05-06T18:44:22.353Z,9.13
2023-05-06T18:46:49.116Z,8.77
2023-05-06T18:49:16.424Z,9.15
2023-05-06T18:51:43.158Z,11.55
2023-05-06T18:54:09.923Z,10.35
2023-05-06T18:56:37.326Z,8.65
2023-05-06T18:59:04.259Z,8.47
2023-05-06T19:01:31.016Z,9.63
2023-05-06T19:03:57.857Z,9.57
2023-05-06T19:06:24.704Z,12.98
2023-05-06T19:08:51.540Z,11.70
2023-05-06T19:11:18.941Z,13.93
2023-05-06T19:13:46.230Z,10.95
2023-05-06T19:16:13.982Z,12.95
2023-05-06T19:18:40.983Z,9.85
2023-05-06T19:21:11.750Z,11.90
2023-05-06T19:23:38.825Z,11.50
2023-05-06T19:26:06.747Z,8.63
2023-05-06T19:28:34.189Z,10.75
2023-05-06T19:31:01.639Z,13.60
2023-05-06T19:33:28.618Z,14.68
2023-05-06T19:35:55.394Z,11.53
2023-05-06T19:38:22.192Z,11.60
2023-05-06T19:40:48.887Z,11.60
2023-05-06T19:43:15.626Z,14.88
2023-05-06T19:45:42.482Z,11.60
2023-05-06T19:48:09.296Z,15.00
2023-05-06T19:50:36.698Z,13.40
2023-05-06T19:53:03.762Z,11.52
2023-05-06T19:55:31.037Z,13.40
2023-05-06T19:57:58.102Z,12.65
2023-05-06T20:00:27.213Z,14.73
2023-05-06T20:02:56.675Z,12.30
2023-05-06T20:05:23.933Z,11.10
2023-05-06T20:07:51.188Z,13.70
2023-05-06T20:10:17.937Z,12.32
2023-05-06T20:12:44.744Z,11.47
2023-05-06T20:15:11.856Z,12.63
2023-05-06T20:17:38.993Z,14.40
2023-05-06T20:20:09.999Z,17.45
2023-05-06T20:22:40.172Z,13.98
2023-05-06T20:25:08.705Z,13.20
2023-05-06T20:27:36.035Z,17.08
2023-05-06T20:30:03.294Z,14.82
2023-05-06T20:32:31.548Z,13.52
2023-05-06T20:34:58.350Z,14.45
2023-05-06T20:37:25.478Z,16.73
2023-05-06T20:39:52.226Z,13.65
2023-05-06T20:42:19.017Z,13.68
2023-05-06T20:44:45.757Z,16.05
2023-05-06T20:47:12.588Z,17.92
2023-05-06T20:49:39.446Z,15.73
2023-05-06T20:52:07.763Z,17.25
2023-05-06T20:54:34.839Z,15.20
2023-05-06T20:57:02.516Z,14.68
2023-05-06T20:59:29.817Z,17.25
2023-05-06T21:01:56.619Z,14.90
2023-05-06T21:04:23.703Z,14.20
2023-05-06T21:06:50.589Z,13.43
2023-05-06T21:09:18.349Z,11.90
2023-05-06T21:11:45.210Z,14.07
2023-05-06T21:14:12.650Z,14.63
2023-05-06T21:16:40.678Z,14.10
2023-05-06T21:19:07.724Z,14.43
2023-05-06T21:21:34.690Z,15.55
2023-05-06T21:24:01.426Z,15.35
2023-05-06T21:26:29.576Z,17.90
2023-05-06T21:28:57.023Z,12.32
2023-05-06T21:31:25.300Z,14.32
2023-05-06T21:33:55.166Z,14.90
2023-05-06T21:36:22.088Z,13.23
2023-05-06T21:38:58.014Z,13.77
2023-05-06T21:41:25.896Z,17.98
2023-05-06T21:43:52.568Z,18.70
2023-05-06T21:46:19.319Z,19.75
2023-05-06T21:48:46.070Z,16.67
2023-05-06T21:51:12.753Z,18.47
2023-05-06T21:53:39.434Z,18.27
2023-05-06T21:56:06.331Z,12.02
2023-05-06T21:58:33.064Z,12.55
2023-05-06T22:00:59.781Z,12.80
2023-05-06T22:03:27.821Z,13.23
2023-05-06T22:05:54.681Z,14.32
2023-05-06T22:08:21.383Z,21.60
2023-05-06T22:10:48.162Z,16.45
2023-05-06T22:13:14.871Z,23.77
2023-05-06T22:15:41.892Z,20.40
2023-05-06T22:18:08.943Z,20.25
2023-05-06T22:20:38.486Z,15.82
2023-05-06T22:23:07.452Z,13.35
2023-05-06T22:25:34.174Z,13.63
2023-05-06T22:28:00.842Z,12.73
2023-05-06T22:30:27.705Z,13.10
2023-05-06T22:32:54.487Z,13.80
2023-05-06T22:35:21.190Z,12.02
2023-05-06T22:37:48.164Z,12.43
2023-05-06T22:40:15.060Z,14.80
2023-05-06T22:42:41.828Z,16.05
2023-05-06T22:45:09.743Z,14.70
2023-05-06T22:47:36.544Z,14.90
2023-05-06T22:50:03.452Z,15.77
2023-05-06T22:52:30.238Z,11.60
2023-05-06T22:54:56.992Z,16.25
2023-05-06T22:57:25.267Z,14.85
2023-05-06T22:59:52.080Z,15.95
2023-05-06T23:02:18.813Z,20.50
2023-05-06T23:04:45.538Z,12.93
2023-05-06T23:07:13.809Z,12.25
2023-05-06T23:09:40.617Z,10.82
2023-05-06T23:12:07.634Z,10.52
2023-05-06T23:14:34.425Z,12.13
2023-05-06T23:17:01.350Z,8.87
2023-05-06T23:19:28.124Z,10.07
2023-05-06T23:21:54.843Z,11.70
2023-05-06T23:24:21.540Z,9.20
2023-05-06T23:26:48.249Z,10.48
2023-05-06T23:29:14.982Z,7.97
2023-05-06T23:31:41.703Z,9.73
2023-05-06T23:34:08.382Z,12.57
2023-05-06T23:36:35.248Z,10.43
2023-05-06T23:39:01.983Z,12.65
2023-05-06T23:41:28.678Z,11.17
2023-05-06T23:43:55.728Z,10.75
2023-05-06T23:46:22.491Z,10.48
2023-05-06T23:48:49.435Z,9.57
2023-05-06T23:51:16.248Z,9.63
2023-05-06T23:53:42.938Z,9.80
2023-05-06T23:56:09.673Z,10.68
2023-05-06T23:58:36.358Z,8.55
